Oriibu — JD2579 — position and weather

sailwx.info

Track history (hours):
 
Tides and Currents Weather Stations Pressure Air Temp Water Temp Dewpoint Dewpoint Depression Visibility Wind Speed Wind Dir Waves Ship Positions

Oriibu

Last reported at 2015-Jul-03 19:33 UTC. Time now 2015-Jul-03 20:16 UTC.
Position N 34°41' E 134°47'.

Length 75 m; draft 4.2 m.

MMSI: 431000426.

Date/timePositionNaut miles runAvg speedWind from/ knotsBaromVisibWave heightAir tempDewpointWater temp
2015-Jul-03 19:33N 34°41' E 134°47'0 0.0
2015-Jul-03 17:19N 34°41' E 134°47'  
2015-Jul-01 07:33N 33°46' E 130°19'9 8.9
2015-Jul-01 06:33N 33°37' E 130°23'2 1.6
2015-Jul-01 05:32N 33°37' E 130°24'0 0.0
2015-Jul-01 04:33N 33°37' E 130°24'0 0.0
2015-Jul-01 03:32N 33°37' E 130°24'0 0.0
2015-Jul-01 02:32N 33°37' E 130°24'0 0.0
2015-Jul-01 01:32N 33°37' E 130°24'0 0.0
2015-Jul-01 00:32N 33°37' E 130°24'0 0.0
2015-Jun-30 23:33N 33°37' E 130°24'0 0.0
2015-Jun-30 22:12N 33°37' E 130°24'0 0.0
2015-Jun-30 21:32N 33°37' E 130°24'0 0.0
2015-Jun-30 20:33N 33°37' E 130°24'0 0.0
2015-Jun-30 19:33N 33°37' E 130°24'0 0.0
2015-Jun-30 18:33N 33°37' E 130°24'0 0.0
2015-Jun-30 17:33N 33°37' E 130°24'0 0.0
2015-Jun-30 16:33N 33°37' E 130°24'0 0.0
2015-Jun-30 15:33N 33°37' E 130°24'0 0.0
2015-Jun-30 14:33N 33°37' E 130°24'0 0.0
2015-Jun-30 13:33N 33°37' E 130°24'0 0.0
2015-Jun-30 12:33N 33°37' E 130°24'0 0.0
2015-Jun-30 11:32N 33°37' E 130°24'0 0.0
2015-Jun-30 10:32N 33°37' E 130°24'0 0.0
2015-Jun-30 09:32N 33°37' E 130°24'0 0.0
2015-Jun-30 08:33N 33°37' E 130°24'0 0.0
2015-Jun-30 07:33N 33°37' E 130°24'0 0.0
2015-Jun-30 06:32N 33°37' E 130°24'0 0.0
2015-Jun-30 05:32N 33°37' E 130°24'0 0.0
2015-Jun-30 04:33N 33°37' E 130°24'0 0.0
2015-Jun-30 03:33N 33°37' E 130°24'0 0.0
2015-Jun-30 02:33N 33°37' E 130°24'0 0.0
2015-Jun-30 01:33N 33°37' E 130°24'0 0.0
2015-Jun-30 00:32N 33°37' E 130°24'0 0.0
2015-Jun-29 23:32N 33°37' E 130°24'3 3.1
2015-Jun-29 22:33N 33°38' E 130°21'8 7.7
2015-Jun-29 21:33N 33°45' E 130°17'  
Track history (hours):
 
Tides and Currents Weather Stations Pressure Air Temp Water Temp Dewpoint Dewpoint Depression Visibility Wind Speed Wind Dir Waves Ship Positions

Oriibu

Last reported at 2015-Jul-03 19:33 UTC. Time now 2015-Jul-03 20:16 UTC.
Position N 34°41' E 134°47'.

Length 75 m; draft 4.2 m.

MMSI: 431000426.

Date/timePositionNaut miles runAvg speedWind from/ knotsBaromVisibWave heightAir tempDewpointWater temp
2015-Jul-03 19:33N 34°41' E 134°47'0 0.0
2015-Jul-03 17:19N 34°41' E 134°47'  
2015-Jul-01 07:33N 33°46' E 130°19'9 8.9
2015-Jul-01 06:33N 33°37' E 130°23'2 1.6
2015-Jul-01 05:32N 33°37' E 130°24'0 0.0
2015-Jul-01 04:33N 33°37' E 130°24'0 0.0
2015-Jul-01 03:32N 33°37' E 130°24'0 0.0
2015-Jul-01 02:32N 33°37' E 130°24'0 0.0
2015-Jul-01 01:32N 33°37' E 130°24'0 0.0
2015-Jul-01 00:32N 33°37' E 130°24'0 0.0
2015-Jun-30 23:33N 33°37' E 130°24'0 0.0
2015-Jun-30 22:12N 33°37' E 130°24'0 0.0
2015-Jun-30 21:32N 33°37' E 130°24'0 0.0
2015-Jun-30 20:33N 33°37' E 130°24'0 0.0
2015-Jun-30 19:33N 33°37' E 130°24'0 0.0
2015-Jun-30 18:33N 33°37' E 130°24'0 0.0
2015-Jun-30 17:33N 33°37' E 130°24'0 0.0
2015-Jun-30 16:33N 33°37' E 130°24'0 0.0
2015-Jun-30 15:33N 33°37' E 130°24'0 0.0
2015-Jun-30 14:33N 33°37' E 130°24'0 0.0
2015-Jun-30 13:33N 33°37' E 130°24'0 0.0
2015-Jun-30 12:33N 33°37' E 130°24'0 0.0
2015-Jun-30 11:32N 33°37' E 130°24'0 0.0
2015-Jun-30 10:32N 33°37' E 130°24'0 0.0
2015-Jun-30 09:32N 33°37' E 130°24'0 0.0
2015-Jun-30 08:33N 33°37' E 130°24'0 0.0
2015-Jun-30 07:33N 33°37' E 130°24'0 0.0
2015-Jun-30 06:32N 33°37' E 130°24'0 0.0
2015-Jun-30 05:32N 33°37' E 130°24'0 0.0
2015-Jun-30 04:33N 33°37' E 130°24'0 0.0
2015-Jun-30 03:33N 33°37' E 130°24'0 0.0
2015-Jun-30 02:33N 33°37' E 130°24'0 0.0
2015-Jun-30 01:33N 33°37' E 130°24'0 0.0
2015-Jun-30 00:32N 33°37' E 130°24'0 0.0
2015-Jun-29 23:32N 33°37' E 130°24'3 3.1
2015-Jun-29 22:33N 33°38' E 130°21'8 7.7
2015-Jun-29 21:33N 33°45' E 130°17'  

Dump ship's entire track history